createdAt,value
2019-05-30T00:00:11.364Z,101719.11
2019-05-30T00:01:38.645Z,101708.66
2019-05-30T00:03:13.343Z,101708.66
2019-05-30T00:04:49.621Z,101705.55
2019-05-30T00:06:24.273Z,101706.72
2019-05-30T00:08:00.294Z,101711.34
2019-05-30T00:09:35.042Z,101707.62
2019-05-30T00:11:10.295Z,101709.38
2019-05-30T00:12:45.013Z,101697.56
2019-05-30T00:14:20.251Z,101697.56
2019-05-30T00:15:54.965Z,101712.59
2019-05-30T00:17:30.172Z,101704.25
2019-05-30T00:19:05.139Z,101708.24
2019-05-30T00:20:40.303Z,101708.24
2019-05-30T00:22:15.063Z,101703.65
2019-05-30T00:23:50.272Z,101707.09
2019-05-30T00:25:24.921Z,101706.91
2019-05-30T00:27:00.329Z,101706.91
2019-05-30T00:28:35.090Z,101706.23
2019-05-30T00:30:24.061Z,101706.23
2019-05-30T00:31:47.687Z,101706.59
2019-05-30T00:33:23.023Z,101704.81
2019-05-30T00:34:57.894Z,101704.81
2019-05-30T00:36:33.104Z,101702.06
2019-05-30T00:38:07.772Z,101700.63
2019-05-30T00:39:43.009Z,101700.63
2019-05-30T00:41:17.667Z,101699.35
2019-05-30T00:42:52.905Z,101698.69
2019-05-30T00:44:27.672Z,101698.02
2019-05-30T00:46:04.191Z,101679.53
2019-05-30T00:47:38.901Z,101681.15
2019-05-30T00:49:14.232Z,101681.50
2019-05-30T00:50:48.873Z,101687.52
2019-05-30T00:52:24.097Z,101685.98
2019-05-30T00:53:58.769Z,101685.98
2019-05-30T00:55:34.000Z,101680.83
2019-05-30T00:57:08.643Z,101681.01
2019-05-30T00:58:43.927Z,101681.01
2019-05-30T01:00:18.760Z,101675.86
2019-05-30T01:01:54.001Z,101675.86
2019-05-30T01:03:28.654Z,101663.82
2019-05-30T01:05:05.147Z,101675.36
2019-05-30T01:06:39.920Z,101675.36
2019-05-30T01:08:15.244Z,101670.22
2019-05-30T01:09:49.898Z,101672.67
2019-05-30T01:11:25.108Z,101665.23
2019-05-30T01:13:01.277Z,101664.63
2019-05-30T01:14:36.598Z,101670.30
2019-05-30T01:16:11.250Z,101660.41
2019-05-30T01:17:46.504Z,101667.06
2019-05-30T01:19:21.149Z,101660.20
2019-05-30T01:20:56.998Z,101659.45
2019-05-30T01:22:31.832Z,101655.77
2019-05-30T01:24:07.692Z,101655.77
2019-05-30T01:25:42.457Z,101647.67
2019-05-30T01:27:17.680Z,101654.33
2019-05-30T01:28:52.318Z,101644.81
2019-05-30T01:30:28.017Z,101656.00
2019-05-30T01:32:21.692Z,101652.09
2019-05-30T01:33:57.465Z,101653.42
2019-05-30T01:35:32.794Z,101648.59
2019-05-30T01:37:07.893Z,101650.39
2019-05-30T01:38:43.160Z,101645.19
2019-05-30T01:40:17.823Z,101649.34
2019-05-30T01:41:53.058Z,101649.34
2019-05-30T01:43:27.752Z,101650.08
2019-05-30T01:45:04.142Z,101641.77
2019-05-30T01:46:38.821Z,101644.73
2019-05-30T01:48:14.060Z,101641.02
2019-05-30T01:49:48.703Z,101634.72
2019-05-30T01:51:23.945Z,101642.18
2019-05-30T01:52:58.584Z,101639.31
2019-05-30T01:54:33.847Z,101640.33
2019-05-30T01:56:08.981Z,101636.20
2019-05-30T01:57:44.276Z,101640.16
2019-05-30T01:59:18.948Z,101641.52
2019-05-30T02:00:54.215Z,101641.52
2019-05-30T02:02:28.861Z,101632.52
2019-05-30T02:04:05.208Z,101636.25
2019-05-30T02:05:40.089Z,101637.00
2019-05-30T02:07:15.319Z,101635.12
2019-05-30T02:08:50.011Z,101639.46
2019-05-30T02:10:25.369Z,101639.78
2019-05-30T02:12:01.191Z,101635.93
2019-05-30T02:13:36.616Z,101637.06
2019-05-30T02:15:12.411Z,101637.06
2019-05-30T02:16:47.899Z,101641.69
2019-05-30T02:18:22.616Z,101637.06
2019-05-30T02:19:59.692Z,101626.13
2019-05-30T02:21:34.386Z,101626.13
2019-05-30T02:23:11.470Z,101627.75
2019-05-30T02:24:45.978Z,101627.75
2019-05-30T02:26:21.216Z,101634.20
2019-05-30T02:27:56.422Z,101634.20
2019-05-30T02:29:31.662Z,101632.08
2019-05-30T02:31:07.094Z,101628.91
2019-05-30T02:32:43.015Z,101634.20
2019-05-30T02:34:17.637Z,101633.62
2019-05-30T02:35:52.889Z,101638.73
2019-05-30T02:37:27.547Z,101632.58
2019-05-30T02:39:03.089Z,101625.81
2019-05-30T02:40:37.775Z,101636.39
2019-05-30T02:42:13.078Z,101637.09
2019-05-30T02:43:51.953Z,101634.80
2019-05-30T02:45:27.250Z,101637.20
2019-05-30T02:47:03.529Z,101634.31
2019-05-30T02:48:57.385Z,101637.47
2019-05-30T02:50:15.666Z,101629.59
2019-05-30T02:51:50.905Z,101639.95
2019-05-30T02:53:25.592Z,101639.95
2019-05-30T02:55:01.788Z,101639.40
2019-05-30T02:56:37.148Z,101634.55
2019-05-30T02:58:12.956Z,101643.31
2019-05-30T02:59:49.057Z,101633.91
2019-05-30T03:01:24.317Z,101633.91
2019-05-30T03:02:59.009Z,101637.70
2019-05-30T03:04:34.222Z,101632.38
2019-05-30T03:06:11.043Z,101634.31
2019-05-30T03:07:45.897Z,101629.80
2019-05-30T03:09:20.692Z,101634.31
2019-05-30T03:10:56.220Z,101631.70
2019-05-30T03:12:30.942Z,101629.65
2019-05-30T03:14:12.084Z,101618.39
2019-05-30T03:15:43.716Z,101618.39
2019-05-30T03:17:18.990Z,101627.38
2019-05-30T03:18:54.080Z,101626.13
2019-05-30T03:20:29.362Z,101626.13
2019-05-30T03:22:05.189Z,101628.21
2019-05-30T03:23:42.549Z,101628.21
2019-05-30T03:25:17.460Z,101626.67
2019-05-30T03:26:52.797Z,101629.41
2019-05-30T03:28:27.758Z,101626.07
2019-05-30T03:30:07.524Z,101631.94
2019-05-30T03:31:40.441Z,101626.07
2019-05-30T03:33:36.089Z,101610.42
2019-05-30T03:34:52.364Z,101610.42
2019-05-30T03:36:31.380Z,101626.01
2019-05-30T03:38:05.728Z,101620.68
2019-05-30T03:39:41.276Z,101624.28
2019-05-30T03:41:16.063Z,101619.13
2019-05-30T03:42:51.774Z,101609.26
2019-05-30T03:44:26.418Z,101616.37
2019-05-30T03:46:03.912Z,101617.55
2019-05-30T03:47:38.979Z,101622.69
2019-05-30T03:49:17.869Z,101622.69
2019-05-30T03:50:53.893Z,101617.09
2019-05-30T03:52:29.309Z,101613.36
2019-05-30T03:54:05.536Z,101608.97
2019-05-30T03:55:42.032Z,101601.86
2019-05-30T03:57:24.215Z,101601.86
2019-05-30T03:59:05.911Z,101606.89
2019-05-30T04:00:50.804Z,101607.45
2019-05-30T04:02:56.468Z,101606.94
2019-05-30T04:04:24.206Z,101606.19
2019-05-30T04:06:02.684Z,101606.19
2019-05-30T04:07:41.365Z,101617.06
2019-05-30T04:09:22.470Z,101611.89
2019-05-30T04:10:56.321Z,101611.89
2019-05-30T04:12:55.479Z,101605.04
2019-05-30T04:14:32.826Z,101605.04
2019-05-30T04:16:08.692Z,101616.75
2019-05-30T04:17:44.135Z,101615.45
2019-05-30T04:19:20.093Z,101617.31
2019-05-30T04:20:56.663Z,101627.75
2019-05-30T04:22:31.309Z,101627.75
2019-05-30T04:24:08.043Z,101628.62
2019-05-30T04:25:43.882Z,101616.84
2019-05-30T04:27:19.259Z,101616.84
2019-05-30T04:28:53.954Z,101631.30
2019-05-30T04:30:30.163Z,101620.66
2019-05-30T04:32:05.976Z,101621.99
2019-05-30T04:33:41.325Z,101621.99
2019-05-30T04:35:16.871Z,101618.62
2019-05-30T04:36:53.554Z,101618.95
2019-05-30T04:38:28.623Z,101618.95
2019-05-30T04:40:03.994Z,101609.87
2019-05-30T04:41:38.658Z,101623.79
2019-05-30T04:43:15.325Z,101622.51
2019-05-30T04:44:50.272Z,101621.20
2019-05-30T04:46:25.502Z,101623.89
2019-05-30T04:48:00.182Z,101623.88
2019-05-30T04:49:35.503Z,101626.23
2019-05-30T04:51:10.834Z,101626.47
2019-05-30T04:52:47.203Z,101631.98
2019-05-30T04:54:22.304Z,101625.97
2019-05-30T04:55:57.575Z,101632.06
2019-05-30T04:57:32.239Z,101624.55
2019-05-30T04:59:07.565Z,101628.32
2019-05-30T05:00:42.300Z,101630.78
2019-05-30T05:02:18.840Z,101628.34
2019-05-30T05:03:54.016Z,101620.65
2019-05-30T05:05:29.561Z,101620.65
2019-05-30T05:07:04.245Z,101639.09
2019-05-30T05:08:39.492Z,101637.09
2019-05-30T05:10:14.149Z,101622.11
2019-05-30T05:11:49.511Z,101623.41
2019-05-30T05:13:24.186Z,101631.17
2019-05-30T05:14:59.438Z,101631.84
2019-05-30T05:16:36.313Z,101629.89
2019-05-30T05:18:11.027Z,101627.02
2019-05-30T05:19:46.774Z,101625.20
2019-05-30T05:21:23.137Z,101624.19
2019-05-30T05:22:57.914Z,101622.72
2019-05-30T05:24:33.147Z,101618.88
2019-05-30T05:26:07.781Z,101619.17
2019-05-30T05:27:43.017Z,101620.55
2019-05-30T05:29:18.004Z,101616.16
2019-05-30T05:30:53.352Z,101617.88
2019-05-30T05:32:28.086Z,101613.80
2019-05-30T05:34:03.334Z,101616.48
2019-05-30T05:35:37.977Z,101616.96
2019-05-30T05:37:13.208Z,101620.86
2019-05-30T05:38:47.845Z,101616.55
2019-05-30T05:40:24.322Z,101617.53
2019-05-30T05:41:59.107Z,101622.03
2019-05-30T05:43:34.370Z,101619.91
2019-05-30T05:45:09.382Z,101616.96
2019-05-30T05:46:44.687Z,101621.77
2019-05-30T05:48:20.391Z,101625.38
2019-05-30T05:49:56.018Z,101625.33
2019-05-30T05:51:30.771Z,101625.80
2019-05-30T05:53:06.031Z,101628.39
2019-05-30T05:54:40.687Z,101630.23
2019-05-30T05:56:16.938Z,101632.31
2019-05-30T05:57:52.112Z,101630.80
2019-05-30T05:59:27.497Z,101628.84
2019-05-30T06:01:02.205Z,101632.84
2019-05-30T06:02:37.503Z,101631.22
2019-05-30T06:04:13.885Z,101631.30
2019-05-30T06:05:53.231Z,101633.98
2019-05-30T06:07:25.845Z,101631.30
2019-05-30T06:09:01.067Z,101637.00
2019-05-30T06:10:35.997Z,101636.25
2019-05-30T06:12:11.247Z,101636.01
2019-05-30T06:13:45.944Z,101634.18
2019-05-30T06:15:21.206Z,101633.02
2019-05-30T06:16:56.205Z,101640.44
2019-05-30T06:18:31.561Z,101641.11
2019-05-30T06:20:06.662Z,101644.48
2019-05-30T06:21:53.585Z,101638.39
2019-05-30T06:23:19.481Z,101641.42
2019-05-30T06:24:54.896Z,101638.23
2019-05-30T06:26:29.543Z,101632.17
2019-05-30T06:28:05.141Z,101635.77
2019-05-30T06:29:39.816Z,101634.67
2019-05-30T06:31:15.055Z,101633.48
2019-05-30T06:32:49.736Z,101635.62
2019-05-30T06:34:35.914Z,101639.30
2019-05-30T06:36:01.417Z,101636.30
2019-05-30T06:37:36.828Z,101642.86
2019-05-30T06:39:11.479Z,101650.00
2019-05-30T06:40:46.718Z,101645.25
2019-05-30T06:42:21.696Z,101642.56
2019-05-30T06:43:56.991Z,101660.82
2019-05-30T06:45:31.702Z,101657.09
2019-05-30T06:47:07.319Z,101649.05
2019-05-30T06:48:42.055Z,101646.75
2019-05-30T06:50:17.360Z,101656.63
2019-05-30T06:51:52.114Z,101648.44
2019-05-30T06:53:27.439Z,101646.30
2019-05-30T06:55:02.083Z,101644.37
2019-05-30T06:56:37.309Z,101649.54
2019-05-30T06:58:12.020Z,101644.00
2019-05-30T06:59:47.347Z,101646.59
2019-05-30T07:01:22.156Z,101645.49
2019-05-30T07:02:57.440Z,101646.59
2019-05-30T07:04:50.430Z,101647.64
2019-05-30T07:06:10.053Z,101649.17
2019-05-30T07:07:45.262Z,101652.16
2019-05-30T07:09:20.715Z,101649.28
2019-05-30T07:10:55.357Z,101654.80
2019-05-30T07:12:31.160Z,101648.15
2019-05-30T07:14:06.556Z,101647.41
2019-05-30T07:15:41.813Z,101648.17
2019-05-30T07:17:16.482Z,101653.70
2019-05-30T07:18:51.713Z,101651.41
2019-05-30T07:20:27.500Z,101656.44
2019-05-30T07:22:02.746Z,101652.74
2019-05-30T07:23:39.412Z,101649.38
2019-05-30T07:25:14.853Z,101657.97
2019-05-30T07:26:49.515Z,101649.63
2019-05-30T07:28:25.808Z,101658.09
2019-05-30T07:30:00.464Z,101659.60
2019-05-30T07:31:35.729Z,101661.95
2019-05-30T07:33:10.415Z,101656.91
2019-05-30T07:34:46.200Z,101664.72
2019-05-30T07:36:20.973Z,101665.60
2019-05-30T07:37:56.237Z,101663.63
2019-05-30T07:39:33.706Z,101661.11
2019-05-30T07:41:08.135Z,101666.88
2019-05-30T07:42:42.805Z,101667.81
2019-05-30T07:44:18.043Z,101664.28
2019-05-30T07:45:58.048Z,101673.34
2019-05-30T07:47:30.158Z,101663.52
2019-05-30T07:49:05.036Z,101669.81
2019-05-30T07:50:40.277Z,101671.31
2019-05-30T07:52:14.926Z,101668.58
2019-05-30T07:53:50.179Z,101667.61
2019-05-30T07:55:24.818Z,101669.67
2019-05-30T07:57:00.101Z,101670.42
2019-05-30T07:58:35.356Z,101672.28
2019-05-30T08:00:11.666Z,101677.61
2019-05-30T08:01:46.357Z,101673.19
2019-05-30T08:03:21.611Z,101676.17
2019-05-30T08:04:56.290Z,101672.05
2019-05-30T08:06:31.607Z,101673.25
2019-05-30T08:08:06.343Z,101671.27
2019-05-30T08:09:42.557Z,101673.94
2019-05-30T08:11:17.214Z,101672.90
2019-05-30T08:12:52.756Z,101671.16
2019-05-30T08:14:27.408Z,101675.94
2019-05-30T08:16:02.667Z,101671.04
2019-05-30T08:17:37.883Z,101660.87
2019-05-30T08:19:13.357Z,101667.86
2019-05-30T08:20:48.028Z,101666.04
2019-05-30T08:22:23.372Z,101656.84
2019-05-30T08:23:58.178Z,101659.85
2019-05-30T08:25:34.253Z,101663.80
2019-05-30T08:27:09.037Z,101659.66
2019-05-30T08:28:44.587Z,101668.60
2019-05-30T08:30:19.505Z,101660.52
2019-05-30T08:31:54.743Z,101660.52
2019-05-30T08:33:29.770Z,101661.70
2019-05-30T08:35:05.082Z,101660.66
2019-05-30T08:36:39.747Z,101657.61
2019-05-30T08:38:14.996Z,101659.85
2019-05-30T08:39:49.629Z,101660.17
2019-05-30T08:41:24.898Z,101655.77
2019-05-30T08:42:59.550Z,101655.27
2019-05-30T08:44:35.891Z,101653.20
2019-05-30T08:46:10.668Z,101650.97
2019-05-30T08:47:45.943Z,101657.86
2019-05-30T08:49:21.732Z,101652.38
2019-05-30T08:50:56.995Z,101649.13
2019-05-30T08:52:32.429Z,101647.55
2019-05-30T08:54:07.875Z,101648.90
2019-05-30T08:55:43.011Z,101646.52
2019-05-30T08:57:18.287Z,101646.84
2019-05-30T08:58:52.943Z,101647.53
2019-05-30T09:00:29.744Z,101649.11
2019-05-30T09:02:04.606Z,101645.84
2019-05-30T09:03:40.224Z,101651.42
2019-05-30T09:05:15.199Z,101652.86
2019-05-30T09:06:50.810Z,101651.02
2019-05-30T09:08:25.455Z,101646.50
2019-05-30T09:10:00.757Z,101647.44
2019-05-30T09:11:37.675Z,101654.44
2019-05-30T09:13:13.584Z,101652.11
2019-05-30T09:14:48.305Z,101651.19
2019-05-30T09:16:23.500Z,101649.71
2019-05-30T09:17:58.517Z,101646.25
2019-05-30T09:19:33.861Z,101651.13
2019-05-30T09:21:08.866Z,101652.62
2019-05-30T09:22:45.401Z,101645.23
2019-05-30T09:24:20.459Z,101640.69
2019-05-30T09:25:55.792Z,101643.98
2019-05-30T09:27:30.432Z,101647.02
2019-05-30T09:29:06.027Z,101644.09
2019-05-30T09:30:41.602Z,101636.27
2019-05-30T09:32:17.730Z,101641.55
2019-05-30T09:33:52.447Z,101640.85
2019-05-30T09:35:28.050Z,101636.84
2019-05-30T09:37:02.727Z,101642.13
2019-05-30T09:38:38.851Z,101645.09
2019-05-30T09:40:15.443Z,101639.12
2019-05-30T09:41:50.752Z,101640.58
2019-05-30T09:43:25.415Z,101647.91
2019-05-30T09:45:05.323Z,101639.12
2019-05-30T09:46:41.355Z,101634.33
2019-05-30T09:48:16.974Z,101639.09
2019-05-30T09:49:51.774Z,101634.01
2019-05-30T09:51:27.089Z,101635.69
2019-05-30T09:53:01.757Z,101642.44
2019-05-30T09:54:37.005Z,101628.39
2019-05-30T09:56:12.745Z,101634.41
2019-05-30T09:57:48.014Z,101635.89
2019-05-30T09:59:22.650Z,101634.22
2019-05-30T10:00:57.987Z,101643.36
2019-05-30T10:02:33.696Z,101634.61
2019-05-30T10:04:08.945Z,101642.15
2019-05-30T10:05:45.116Z,101641.20
2019-05-30T10:07:20.682Z,101632.13
2019-05-30T10:08:55.381Z,101634.25
2019-05-30T10:10:30.689Z,101627.12
2019-05-30T10:12:05.336Z,101629.03
2019-05-30T10:13:40.562Z,101631.80
2019-05-30T10:15:15.487Z,101635.15
2019-05-30T10:16:55.884Z,101634.07
2019-05-30T10:18:27.145Z,101635.22
2019-05-30T10:20:02.407Z,101632.75
2019-05-30T10:21:37.213Z,101629.72
2019-05-30T10:23:12.512Z,101633.39
2019-05-30T10:24:47.607Z,101639.76
2019-05-30T10:26:24.058Z,101633.68
2019-05-30T10:27:58.740Z,101634.81
2019-05-30T10:29:33.968Z,101635.05
2019-05-30T10:31:08.616Z,101633.67
2019-05-30T10:32:45.422Z,101643.39
2019-05-30T10:34:20.328Z,101643.98
2019-05-30T10:35:56.952Z,101641.44
2019-05-30T10:37:32.773Z,101635.64
2019-05-30T10:39:08.859Z,101635.50
2019-05-30T10:40:43.610Z,101642.61
2019-05-30T10:42:18.840Z,101636.36
2019-05-30T10:43:53.513Z,101633.77
2019-05-30T10:45:29.038Z,101634.06
2019-05-30T10:47:03.702Z,101633.37
2019-05-30T10:48:39.004Z,101644.73
2019-05-30T10:50:14.110Z,101643.08
2019-05-30T10:51:49.656Z,101645.66
2019-05-30T10:53:24.310Z,101642.03
2019-05-30T10:54:59.541Z,101635.41
2019-05-30T10:56:34.334Z,101645.69
2019-05-30T10:58:09.652Z,101644.80
2019-05-30T10:59:45.983Z,101646.17
2019-05-30T11:01:21.406Z,101643.22
2019-05-30T11:02:57.122Z,101648.07
2019-05-30T11:04:32.536Z,101637.73
2019-05-30T11:06:18.663Z,101642.63
2019-05-30T11:08:05.620Z,101639.54
2019-05-30T11:09:39.828Z,101641.23
2019-05-30T11:11:15.093Z,101646.87
2019-05-30T11:12:56.379Z,101635.03
2019-05-30T11:14:27.671Z,101641.45
2019-05-30T11:16:02.400Z,101649.48
2019-05-30T11:17:37.675Z,101642.97
2019-05-30T11:19:12.328Z,101643.73
2019-05-30T11:20:47.858Z,101634.41
2019-05-30T11:22:22.715Z,101646.09
2019-05-30T11:23:58.388Z,101642.72
2019-05-30T11:25:33.168Z,101646.47
2019-05-30T11:27:08.482Z,101646.22
2019-05-30T11:28:43.226Z,101648.88
2019-05-30T11:30:18.714Z,101648.28
2019-05-30T11:31:53.358Z,101647.20
2019-05-30T11:33:28.740Z,101643.09
2019-05-30T11:35:03.413Z,101649.97
2019-05-30T11:36:38.644Z,101655.19
2019-05-30T11:38:13.313Z,101651.50
2019-05-30T11:39:49.073Z,101655.21
2019-05-30T11:41:23.834Z,101645.30
2019-05-30T11:42:59.918Z,101654.86
2019-05-30T11:44:34.907Z,101640.65
2019-05-30T11:46:10.142Z,101651.87
2019-05-30T11:47:44.777Z,101645.84
2019-05-30T11:49:20.028Z,101649.91
2019-05-30T11:50:55.775Z,101647.68
2019-05-30T11:52:31.029Z,101658.59
2019-05-30T11:54:05.668Z,101650.11
2019-05-30T11:55:40.915Z,101646.30
2019-05-30T11:57:15.675Z,101647.00
2019-05-30T11:58:52.041Z,101644.60
2019-05-30T12:00:27.260Z,101651.30
2019-05-30T12:02:02.600Z,101647.64
2019-05-30T12:03:37.316Z,101645.11
2019-05-30T12:05:13.596Z,101647.05
2019-05-30T12:06:53.145Z,101653.36
2019-05-30T12:08:28.403Z,101655.19
2019-05-30T12:10:03.106Z,101649.97
2019-05-30T12:11:38.732Z,101650.02
2019-05-30T12:13:14.452Z,101655.05
2019-05-30T12:14:51.189Z,101654.77
2019-05-30T12:16:26.092Z,101650.67
2019-05-30T12:18:02.471Z,101652.38
2019-05-30T12:19:37.364Z,101654.39
2019-05-30T12:21:12.592Z,101659.11
2019-05-30T12:22:47.314Z,101655.75
2019-05-30T12:24:22.638Z,101652.43
2019-05-30T12:25:58.063Z,101657.75
2019-05-30T12:27:33.384Z,101651.83
2019-05-30T12:29:08.174Z,101656.67
2019-05-30T12:30:55.903Z,101658.44
2019-05-30T12:32:19.753Z,101660.55
2019-05-30T12:33:56.191Z,101653.16
2019-05-30T12:35:30.928Z,101660.83
2019-05-30T12:37:06.452Z,101662.52
2019-05-30T12:38:41.119Z,101652.06
2019-05-30T12:40:18.647Z,101653.98
2019-05-30T12:41:53.359Z,101649.05
2019-05-30T12:43:28.587Z,101655.58
2019-05-30T12:45:06.855Z,101653.75
2019-05-30T12:46:40.313Z,101656.67
2019-05-30T12:48:15.990Z,101660.13
2019-05-30T12:49:51.223Z,101658.28
2019-05-30T12:51:25.898Z,101655.20
2019-05-30T12:53:02.116Z,101657.94
2019-05-30T12:54:37.986Z,101654.48
2019-05-30T12:56:14.581Z,101654.14
2019-05-30T12:57:49.266Z,101653.17
2019-05-30T12:59:24.898Z,101655.55
2019-05-30T13:01:00.885Z,101656.16
2019-05-30T13:02:36.206Z,101656.77
2019-05-30T13:04:10.973Z,101665.41
2019-05-30T13:05:46.207Z,101660.77
2019-05-30T13:07:20.879Z,101668.03
2019-05-30T13:08:56.986Z,101669.44
2019-05-30T13:10:32.789Z,101666.80
2019-05-30T13:12:08.277Z,101674.20
2019-05-30T13:13:43.056Z,101677.70
2019-05-30T13:15:18.624Z,101670.91
2019-05-30T13:16:53.363Z,101680.04
2019-05-30T13:18:28.605Z,101673.95
2019-05-30T13:20:05.014Z,101676.38
2019-05-30T13:21:40.302Z,101672.03
2019-05-30T13:23:14.968Z,101677.20
2019-05-30T13:24:50.198Z,101676.45
2019-05-30T13:26:24.917Z,101682.66
2019-05-30T13:28:03.771Z,101674.92
2019-05-30T13:29:36.955Z,101676.20
2019-05-30T13:31:12.180Z,101675.42
2019-05-30T13:32:46.831Z,101676.15
2019-05-30T13:34:22.127Z,101674.37
2019-05-30T13:35:57.052Z,101676.45
2019-05-30T13:37:32.362Z,101677.67
2019-05-30T13:39:07.904Z,101676.38
2019-05-30T13:40:43.155Z,101673.82
2019-05-30T13:42:18.135Z,101672.75
2019-05-30T13:43:53.451Z,101670.66
2019-05-30T13:45:28.115Z,101680.28
2019-05-30T13:47:04.496Z,101672.54
2019-05-30T13:48:40.178Z,101676.27
2019-05-30T13:50:15.503Z,101681.09
2019-05-30T13:51:50.150Z,101679.53
2019-05-30T13:53:25.371Z,101676.95
2019-05-30T13:55:00.969Z,101678.27
2019-05-30T13:56:37.199Z,101672.86
2019-05-30T13:58:11.861Z,101673.57
2019-05-30T13:59:47.121Z,101669.59
2019-05-30T14:01:21.826Z,101668.09
2019-05-30T14:02:57.097Z,101670.44
2019-05-30T14:04:31.844Z,101677.62
2019-05-30T14:06:08.314Z,101676.22
2019-05-30T14:07:49.429Z,101674.29
2019-05-30T14:09:24.789Z,101669.76
2019-05-30T14:11:00.500Z,101672.98
2019-05-30T14:12:35.926Z,101664.92
2019-05-30T14:14:10.987Z,101662.52
2019-05-30T14:15:46.330Z,101671.09
2019-05-30T14:17:20.977Z,101670.28
2019-05-30T14:18:56.213Z,101666.45
2019-05-30T14:20:30.876Z,101669.56
2019-05-30T14:22:07.252Z,101676.22
2019-05-30T14:23:42.092Z,101674.59
2019-05-30T14:25:17.704Z,101674.20
2019-05-30T14:26:52.380Z,101676.08
2019-05-30T14:28:27.676Z,101678.89
2019-05-30T14:30:04.673Z,101684.52
2019-05-30T14:31:40.137Z,101679.36
2019-05-30T14:33:14.777Z,101674.46
2019-05-30T14:34:49.993Z,101685.41
2019-05-30T14:36:24.733Z,101685.56
2019-05-30T14:37:59.996Z,101672.79
2019-05-30T14:39:34.670Z,101683.00
2019-05-30T14:41:11.993Z,101677.20
2019-05-30T14:42:46.375Z,101685.41
2019-05-30T14:46:13.916Z,101683.08
2019-05-30T14:47:49.202Z,101683.83
2019-05-30T14:49:23.845Z,101679.85
2019-05-30T14:50:59.094Z,101677.02
2019-05-30T14:52:33.752Z,101682.11
2019-05-30T14:54:09.071Z,101679.05
2019-05-30T14:55:43.749Z,101686.09
2019-05-30T14:57:19.538Z,101686.24
2019-05-30T14:58:57.247Z,101689.08
2019-05-30T15:00:32.548Z,101688.42
2019-05-30T15:02:07.277Z,101692.71
2019-05-30T15:03:42.528Z,101686.27
2019-05-30T15:05:17.264Z,101695.69
2019-05-30T15:06:52.491Z,101688.95
2019-05-30T15:08:27.160Z,101691.08
2019-05-30T15:10:02.399Z,101692.38
2019-05-30T15:11:37.038Z,101688.48
2019-05-30T15:13:12.290Z,101683.14
2019-05-30T15:14:46.962Z,101685.78
2019-05-30T15:16:22.200Z,101686.55
2019-05-30T15:17:56.921Z,101679.00
2019-05-30T15:19:32.151Z,101671.11
2019-05-30T15:21:06.830Z,101673.88
2019-05-30T15:22:42.143Z,101681.58
2019-05-30T15:24:16.768Z,101674.50
2019-05-30T15:25:52.070Z,101680.75
2019-05-30T15:27:26.717Z,101675.31
2019-05-30T15:29:01.961Z,101682.06
2019-05-30T15:30:36.646Z,101676.95
2019-05-30T15:32:12.358Z,101676.78
2019-05-30T15:33:47.222Z,101680.66
2019-05-30T15:35:22.566Z,101674.86
2019-05-30T15:36:57.199Z,101672.80
2019-05-30T15:38:32.454Z,101677.54
2019-05-30T15:40:08.762Z,101678.42
2019-05-30T15:41:44.052Z,101679.81
2019-05-30T15:43:18.769Z,101680.53
2019-05-30T15:44:54.076Z,101680.41
2019-05-30T15:46:28.706Z,101681.37
2019-05-30T15:48:04.027Z,101677.83
2019-05-30T15:49:38.704Z,101682.62
2019-05-30T15:51:14.669Z,101674.52
2019-05-30T15:52:49.413Z,101680.25
2019-05-30T15:54:24.694Z,101683.13
2019-05-30T15:55:59.321Z,101679.01
2019-05-30T15:57:34.628Z,101684.17
2019-05-30T15:59:09.599Z,101691.11
2019-05-30T16:00:44.857Z,101691.55
2019-05-30T16:02:20.462Z,101693.44
2019-05-30T16:03:55.760Z,101693.87
2019-05-30T16:05:30.393Z,101687.63
2019-05-30T16:07:05.754Z,101686.24
2019-05-30T16:08:40.451Z,101694.09
2019-05-30T16:10:16.969Z,101693.91
2019-05-30T16:11:51.856Z,101686.55
2019-05-30T16:13:27.092Z,101685.56
2019-05-30T16:15:01.825Z,101683.03
2019-05-30T16:16:40.089Z,101685.79
2019-05-30T16:18:13.758Z,101685.16
2019-05-30T16:19:49.131Z,101680.39
2019-05-30T16:21:23.752Z,101680.28
2019-05-30T16:22:58.982Z,101684.40
2019-05-30T16:24:33.708Z,101678.42
2019-05-30T16:26:08.918Z,101674.98
2019-05-30T16:27:43.602Z,101671.69
2019-05-30T16:29:19.816Z,101674.02
2019-05-30T16:30:54.580Z,101675.09
2019-05-30T16:32:29.836Z,101674.91
2019-05-30T16:34:04.922Z,101674.88
2019-05-30T16:35:40.199Z,101672.02
2019-05-30T16:37:16.025Z,101671.41
2019-05-30T16:38:51.279Z,101678.64
2019-05-30T16:40:26.688Z,101677.56
2019-05-30T16:42:02.181Z,101674.98
2019-05-30T16:43:36.824Z,101676.47
2019-05-30T16:45:18.707Z,101684.27
2019-05-30T16:46:50.495Z,101676.89
2019-05-30T16:48:26.735Z,101672.20
2019-05-30T16:50:01.424Z,101675.06
2019-05-30T16:51:36.675Z,101675.20
2019-05-30T16:53:11.488Z,101678.68
2019-05-30T16:54:46.793Z,101672.01
2019-05-30T16:56:21.575Z,101670.70
2019-05-30T16:57:56.839Z,101667.55
2019-05-30T16:59:32.542Z,101672.01
2019-05-30T17:01:08.954Z,101666.06
2019-05-30T17:02:43.630Z,101663.32
2019-05-30T17:04:18.953Z,101668.69
2019-05-30T17:05:54.053Z,101668.42
2019-05-30T17:07:29.331Z,101673.34
2019-05-30T17:09:06.633Z,101668.78
2019-05-30T17:10:42.626Z,101673.93
2019-05-30T17:12:17.478Z,101672.88
2019-05-30T17:13:52.716Z,101679.59
2019-05-30T17:15:27.757Z,101676.41
2019-05-30T17:17:03.259Z,101671.23
2019-05-30T17:18:38.402Z,101671.99
2019-05-30T17:20:16.461Z,101667.46
2019-05-30T17:21:51.110Z,101673.06
2019-05-30T17:23:26.942Z,101673.09
2019-05-30T17:25:03.137Z,101672.69
2019-05-30T17:26:39.444Z,101667.28
2019-05-30T17:28:14.987Z,101671.27
2019-05-30T17:29:50.329Z,101675.06
2019-05-30T17:31:26.160Z,101672.10
2019-05-30T17:33:01.436Z,101670.64
2019-05-30T17:34:36.055Z,101670.94
2019-05-30T17:36:11.316Z,101674.77
2019-05-30T17:37:45.989Z,101676.89
2019-05-30T17:39:22.456Z,101677.36
2019-05-30T17:40:57.164Z,101685.36
2019-05-30T17:42:32.416Z,101680.57
2019-05-30T17:44:07.323Z,101682.52
2019-05-30T17:45:42.575Z,101684.22
2019-05-30T17:47:17.281Z,101682.71
2019-05-30T17:48:52.536Z,101686.81
2019-05-30T17:50:27.862Z,101684.32
2019-05-30T17:52:03.243Z,101682.61
2019-05-30T17:53:37.903Z,101683.69
2019-05-30T17:55:13.782Z,101692.19
2019-05-30T17:56:48.458Z,101691.91
2019-05-30T17:58:30.599Z,101695.36
2019-05-30T18:00:05.991Z,101695.78
2019-05-30T18:01:41.486Z,101694.70
2019-05-30T18:03:16.126Z,101696.23
2019-05-30T18:04:52.331Z,101692.22
2019-05-30T18:06:27.009Z,101691.17
2019-05-30T18:08:02.379Z,101695.62
2019-05-30T18:09:37.184Z,101693.44
2019-05-30T18:11:12.455Z,101689.01